createdAt,value
2023-05-21T00:06:41.194Z,68.93
2023-05-21T00:09:14.550Z,68.75
2023-05-21T00:11:44.439Z,68.45
2023-05-21T00:14:36.026Z,68.36
2023-05-21T00:17:03.888Z,68.08
2023-05-21T00:19:33.452Z,67.92
2023-05-21T00:22:28.099Z,67.61
2023-05-21T00:24:59.985Z,67.26
2023-05-21T00:27:35.574Z,67.20
2023-05-21T00:30:06.521Z,67.28
2023-05-21T00:32:33.754Z,67.11
2023-05-21T00:35:00.936Z,67.12
2023-05-21T00:37:32.406Z,66.96
2023-05-21T00:40:05.149Z,67.20
2023-05-21T00:42:32.147Z,67.34
2023-05-21T00:44:59.456Z,67.43
2023-05-21T00:47:29.029Z,67.80
2023-05-21T00:49:55.985Z,68.03
2023-05-21T00:52:26.353Z,68.00
2023-05-21T00:54:53.725Z,68.32
2023-05-21T00:57:22.443Z,68.33
2023-05-21T00:59:51.799Z,68.51
2023-05-21T01:02:18.793Z,68.52
2023-05-21T01:04:45.845Z,68.70
2023-05-21T01:07:14.033Z,68.83
2023-05-21T01:09:42.504Z,68.76
2023-05-21T01:12:10.886Z,68.93
2023-05-21T01:14:41.624Z,68.89
2023-05-21T01:17:09.976Z,68.81
2023-05-21T01:19:37.167Z,68.88
2023-05-21T01:22:06.573Z,68.98
2023-05-21T01:24:33.888Z,68.84
2023-05-21T01:27:06.029Z,68.85
2023-05-21T01:29:33.468Z,68.99
2023-05-21T01:32:38.264Z,69.15
2023-05-21T01:35:09.822Z,69.54
2023-05-21T01:37:41.118Z,69.66
2023-05-21T01:40:17.782Z,69.80
2023-05-21T01:42:46.014Z,69.88
2023-05-21T01:45:15.324Z,69.77
2023-05-21T01:47:47.166Z,69.64
2023-05-21T01:50:15.631Z,69.48
2023-05-21T01:53:08.683Z,69.26
2023-05-21T01:55:39.007Z,69.35
2023-05-21T01:58:05.899Z,69.29
2023-05-21T02:00:34.151Z,69.08
2023-05-21T02:03:01.427Z,69.12
2023-05-21T02:05:28.431Z,69.03
2023-05-21T02:07:55.357Z,69.02
2023-05-21T02:10:22.647Z,69.10
2023-05-21T02:12:49.575Z,69.40
2023-05-21T02:15:19.388Z,69.48
2023-05-21T02:17:46.455Z,69.68
2023-05-21T02:20:14.039Z,69.72
2023-05-21T02:22:43.286Z,69.93
2023-05-21T02:25:12.234Z,70.02
2023-05-21T02:27:40.290Z,70.20
2023-05-21T02:30:09.355Z,70.47
2023-05-21T02:32:37.012Z,70.62
2023-05-21T02:35:04.695Z,70.75
2023-05-21T02:37:34.677Z,70.81
2023-05-21T02:40:03.718Z,70.79
2023-05-21T02:42:30.747Z,70.85
2023-05-21T02:44:57.827Z,70.89
2023-05-21T02:47:25.061Z,71.03
2023-05-21T02:49:52.621Z,71.15
2023-05-21T02:52:23.472Z,71.18
2023-05-21T02:54:51.481Z,71.17
2023-05-21T02:57:18.361Z,71.25
2023-05-21T02:59:45.537Z,71.32
2023-05-21T03:02:12.615Z,71.53
2023-05-21T03:04:46.104Z,71.62
2023-05-21T03:07:14.418Z,71.77
2023-05-21T03:09:41.834Z,71.98
2023-05-21T03:12:09.837Z,72.07
2023-05-21T03:14:37.730Z,71.90
2023-05-21T03:17:08.070Z,71.89
2023-05-21T03:19:35.843Z,72.05
2023-05-21T03:22:04.004Z,72.03
2023-05-21T03:24:32.569Z,72.17
2023-05-21T03:27:00.987Z,72.23
2023-05-21T03:29:28.295Z,72.35
2023-05-21T03:31:55.588Z,72.49
2023-05-21T03:34:23.016Z,72.75
2023-05-21T03:36:50.548Z,72.73
2023-05-21T03:39:17.554Z,72.61
2023-05-21T03:41:44.584Z,72.71
2023-05-21T03:44:11.679Z,72.89
2023-05-21T03:46:38.675Z,73.07
2023-05-21T03:49:05.824Z,73.12
2023-05-21T03:51:32.922Z,73.23
2023-05-21T03:54:00.837Z,73.74
2023-05-21T03:56:27.859Z,73.43
2023-05-21T03:58:54.895Z,73.85
2023-05-21T04:01:21.866Z,74.23
2023-05-21T04:03:48.938Z,74.31
2023-05-21T04:06:16.460Z,74.25
2023-05-21T04:08:44.023Z,73.78
2023-05-21T04:11:11.151Z,73.93
2023-05-21T04:13:38.403Z,74.40
2023-05-21T04:16:08.305Z,74.63
2023-05-21T04:18:35.244Z,74.29
2023-05-21T04:21:02.258Z,74.14
2023-05-21T04:23:29.214Z,74.41
2023-05-21T04:25:56.097Z,74.18
2023-05-21T04:28:23.709Z,73.98
2023-05-21T04:30:50.770Z,74.46
2023-05-21T04:33:19.657Z,74.59
2023-05-21T04:35:49.364Z,74.28
2023-05-21T04:38:19.199Z,73.89
2023-05-21T04:40:50.416Z,73.65
2023-05-21T04:43:18.118Z,72.94
2023-05-21T04:45:44.980Z,71.98
2023-05-21T04:48:12.178Z,71.44
2023-05-21T04:50:40.937Z,70.92
2023-05-21T04:53:08.233Z,70.63
2023-05-21T04:55:39.341Z,70.05
2023-05-21T04:58:12.224Z,70.14
2023-05-21T05:00:41.584Z,70.05
2023-05-21T05:03:08.546Z,69.85
2023-05-21T05:05:35.815Z,69.50
2023-05-21T05:08:03.614Z,69.51
2023-05-21T05:10:30.487Z,69.44
2023-05-21T05:12:57.745Z,69.22
2023-05-21T05:15:25.762Z,69.03
2023-05-21T05:17:54.087Z,69.12
2023-05-21T05:20:21.010Z,69.16
2023-05-21T05:22:47.981Z,69.06
2023-05-21T05:25:15.050Z,68.97
2023-05-21T05:27:41.918Z,68.71
2023-05-21T05:30:09.312Z,68.57
2023-05-21T05:32:36.251Z,67.96
2023-05-21T05:35:03.567Z,67.80
2023-05-21T05:37:30.550Z,67.88
2023-05-21T05:39:57.434Z,67.20
2023-05-21T05:42:24.387Z,66.85
2023-05-21T05:44:51.341Z,66.61
2023-05-21T05:47:18.211Z,65.94
2023-05-21T05:49:45.229Z,65.81
2023-05-21T05:52:12.331Z,65.35
2023-05-21T05:54:39.265Z,65.06
2023-05-21T05:57:06.173Z,64.54
2023-05-21T05:59:33.418Z,64.47
2023-05-21T06:02:00.944Z,63.81
2023-05-21T06:04:29.436Z,63.98
2023-05-21T06:06:59.986Z,63.56
2023-05-21T06:09:26.943Z,63.24
2023-05-21T06:11:54.021Z,63.07
2023-05-21T06:14:21.004Z,62.56
2023-05-21T06:16:47.883Z,62.30
2023-05-21T06:19:15.102Z,62.12
2023-05-21T06:21:42.140Z,62.02
2023-05-21T06:24:09.077Z,62.15
2023-05-21T06:26:36.122Z,62.11
2023-05-21T06:29:03.655Z,62.16
2023-05-21T06:31:32.448Z,62.12
2023-05-21T06:34:00.309Z,62.29
2023-05-21T06:36:29.389Z,62.53
2023-05-21T06:38:56.649Z,62.28
2023-05-21T06:41:23.879Z,62.23
2023-05-21T06:43:50.951Z,62.31
2023-05-21T06:46:18.002Z,62.30
2023-05-21T06:48:46.095Z,61.93
2023-05-21T06:51:13.184Z,61.60
2023-05-21T06:53:40.216Z,61.79
2023-05-21T06:56:07.322Z,61.32
2023-05-21T06:58:34.921Z,61.48
2023-05-21T07:01:01.996Z,61.26
2023-05-21T07:03:29.179Z,61.33
2023-05-21T07:05:57.537Z,61.40
2023-05-21T07:08:24.491Z,61.15
2023-05-21T07:10:51.462Z,61.07
2023-05-21T07:13:18.548Z,60.95
2023-05-21T07:15:45.499Z,60.72
2023-05-21T07:18:12.812Z,60.62
2023-05-21T07:20:40.440Z,60.66
2023-05-21T07:23:08.784Z,60.45
2023-05-21T07:25:36.259Z,60.52
2023-05-21T07:28:05.916Z,60.09
2023-05-21T07:30:33.505Z,59.33
2023-05-21T07:33:00.506Z,58.50
2023-05-21T07:35:28.545Z,57.68
2023-05-21T07:37:55.632Z,57.62
2023-05-21T07:40:22.657Z,57.61
2023-05-21T07:42:50.080Z,57.22
2023-05-21T07:45:17.181Z,57.23
2023-05-21T07:47:45.924Z,57.32
2023-05-21T07:50:13.820Z,57.06
2023-05-21T07:52:40.851Z,56.01
2023-05-21T07:55:08.848Z,55.60
2023-05-21T07:57:36.244Z,55.83
2023-05-21T08:00:06.391Z,55.22
2023-05-21T08:02:33.750Z,54.56
2023-05-21T08:05:01.300Z,53.09
2023-05-21T08:07:28.822Z,53.70
2023-05-21T08:09:57.644Z,54.15
2023-05-21T08:12:25.370Z,53.61
2023-05-21T08:14:52.370Z,53.49
2023-05-21T08:17:19.221Z,53.21
2023-05-21T08:19:46.108Z,53.38
2023-05-21T08:22:13.353Z,53.30
2023-05-21T08:24:40.875Z,53.41
2023-05-21T08:27:07.806Z,53.46
2023-05-21T08:29:34.877Z,53.64
2023-05-21T08:32:01.900Z,53.73
2023-05-21T08:34:28.843Z,53.34
2023-05-21T08:36:56.646Z,53.22
2023-05-21T08:39:23.534Z,52.76
2023-05-21T08:41:54.937Z,52.28
2023-05-21T08:44:25.900Z,51.09
2023-05-21T08:46:54.630Z,51.30
2023-05-21T08:49:27.303Z,51.71
2023-05-21T08:51:55.773Z,51.91
2023-05-21T08:54:23.645Z,51.71
2023-05-21T08:56:52.468Z,51.61
2023-05-21T08:59:21.193Z,51.63
2023-05-21T09:01:49.553Z,51.26
2023-05-21T09:04:21.341Z,50.85
2023-05-21T09:06:50.008Z,50.55
2023-05-21T09:09:27.663Z,50.67
2023-05-21T09:11:55.025Z,51.28
2023-05-21T09:14:23.326Z,51.35
2023-05-21T09:16:50.388Z,51.18
2023-05-21T09:19:20.637Z,50.87
2023-05-21T09:21:50.584Z,49.93
2023-05-21T09:24:22.236Z,50.45
2023-05-21T09:26:49.257Z,50.56
2023-05-21T09:29:16.472Z,50.38
2023-05-21T09:31:45.134Z,49.95
2023-05-21T09:34:13.639Z,49.18
2023-05-21T09:36:40.813Z,49.61
2023-05-21T09:39:29.620Z,49.69
2023-05-21T09:41:58.079Z,49.22
2023-05-21T09:44:25.151Z,49.57
2023-05-21T09:47:00.583Z,49.54
2023-05-21T09:49:27.649Z,49.62
2023-05-21T09:51:58.503Z,49.22
2023-05-21T09:54:30.831Z,48.02
2023-05-21T09:57:01.929Z,46.79
2023-05-21T09:59:37.964Z,47.15
2023-05-21T10:02:45.640Z,47.24
2023-05-21T10:05:35.799Z,47.06
2023-05-21T11:01:33.250Z,42.76
2023-05-21T11:04:01.545Z,43.07
2023-05-21T11:06:38.163Z,42.71
2023-05-21T11:09:24.779Z,42.18
2023-05-21T11:12:04.549Z,42.52
2023-05-21T11:14:36.363Z,40.40
2023-05-21T11:20:22.534Z,40.30
2023-05-21T11:22:52.965Z,41.87
2023-05-21T11:25:20.402Z,41.44
2023-05-21T11:28:45.800Z,39.73
2023-05-21T11:34:44.290Z,40.99
2023-05-21T11:37:43.480Z,40.38
2023-05-21T11:48:19.291Z,40.65
2023-05-21T11:50:58.615Z,41.04
2023-05-21T11:53:31.873Z,38.30
2023-05-21T11:56:02.176Z,38.25
2023-05-21T12:40:16.318Z,37.27
2023-05-21T12:42:44.569Z,36.69
2023-05-21T12:45:13.592Z,36.69
2023-05-21T12:47:41.883Z,37.18
2023-05-21T12:53:12.625Z,36.49
2023-05-21T12:55:46.397Z,37.13
2023-05-21T12:58:14.392Z,37.04
2023-05-21T13:03:51.960Z,38.37
2023-05-21T13:10:45.904Z,38.58
2023-05-21T13:13:16.314Z,38.52
2023-05-21T13:15:43.435Z,37.80
2023-05-21T13:22:09.851Z,37.35
2023-05-21T13:24:39.402Z,36.87
2023-05-21T13:27:36.745Z,38.02
2023-05-21T13:30:08.979Z,38.86
2023-05-21T13:32:36.439Z,38.91
2023-05-21T13:35:04.263Z,37.71
2023-05-21T13:37:38.610Z,37.86
2023-05-21T13:40:07.464Z,37.29
2023-05-21T13:42:37.204Z,38.05
2023-05-21T13:45:05.952Z,38.07
2023-05-21T13:47:33.262Z,38.54
2023-05-21T13:50:00.478Z,37.60
2023-05-21T13:52:27.428Z,37.82
2023-05-21T13:54:54.435Z,37.56
2023-05-21T13:57:22.182Z,37.11
2023-05-21T13:59:50.300Z,37.13
2023-05-21T14:02:17.330Z,36.33
2023-05-21T14:04:44.409Z,36.56
2023-05-21T14:07:11.586Z,35.95
2023-05-21T14:09:41.742Z,35.51
2023-05-21T14:12:08.864Z,36.04
2023-05-21T14:14:36.084Z,36.15
2023-05-21T14:17:03.214Z,36.58
2023-05-21T14:19:31.287Z,36.59
2023-05-21T14:21:59.415Z,35.10
2023-05-21T14:24:26.913Z,34.21
2023-05-21T14:26:53.906Z,35.38
2023-05-21T14:29:20.944Z,35.59
2023-05-21T14:31:48.372Z,35.69
2023-05-21T14:34:15.395Z,35.93
2023-05-21T14:36:42.390Z,35.63
2023-05-21T14:39:09.276Z,35.14
2023-05-21T14:41:39.176Z,34.79
2023-05-21T14:44:06.362Z,35.38
2023-05-21T14:46:33.409Z,35.84
2023-05-21T14:49:00.886Z,36.03
2023-05-21T14:51:28.002Z,36.47
2023-05-21T14:53:57.067Z,35.94
2023-05-21T14:56:26.806Z,36.43
2023-05-21T14:58:54.321Z,36.52
2023-05-21T15:01:24.896Z,36.53
2023-05-21T15:03:52.561Z,36.42
2023-05-21T15:06:20.068Z,35.97
2023-05-21T15:08:47.924Z,35.87
2023-05-21T15:11:15.780Z,36.21
2023-05-21T15:13:43.089Z,36.37
2023-05-21T15:16:16.562Z,36.44
2023-05-21T15:18:45.563Z,36.60
2023-05-21T15:21:13.609Z,36.47
2023-05-21T15:23:42.583Z,36.16
2023-05-21T15:26:17.513Z,35.75
2023-05-21T15:28:45.140Z,36.14
2023-05-21T15:31:23.928Z,36.33
2023-05-21T15:33:51.169Z,36.41
2023-05-21T15:36:18.252Z,37.03
2023-05-21T15:38:45.350Z,37.10
2023-05-21T15:41:12.346Z,36.96
2023-05-21T15:43:39.305Z,36.74
2023-05-21T15:46:06.428Z,37.15
2023-05-21T15:48:33.722Z,37.75
2023-05-21T15:51:56.888Z,37.76
2023-05-21T15:54:24.417Z,37.91
2023-05-21T15:56:51.615Z,37.80
2023-05-21T15:59:19.079Z,37.74
2023-05-21T16:01:47.236Z,37.93
2023-05-21T16:04:16.494Z,37.66
2023-05-21T16:06:43.586Z,37.51
2023-05-21T16:09:10.845Z,37.50
2023-05-21T16:11:38.541Z,37.44
2023-05-21T16:14:05.516Z,37.55
2023-05-21T16:16:33.763Z,37.71
2023-05-21T16:19:01.335Z,38.02
2023-05-21T16:21:28.361Z,37.98
2023-05-21T16:23:55.789Z,38.02
2023-05-21T16:26:22.709Z,38.32
2023-05-21T16:28:49.787Z,38.23
2023-05-21T16:31:16.876Z,38.45
2023-05-21T16:33:43.852Z,38.76
2023-05-21T16:36:10.853Z,38.95
2023-05-21T16:38:38.144Z,38.72
2023-05-21T16:41:05.218Z,38.68
2023-05-21T16:43:32.123Z,39.06
2023-05-21T16:45:59.110Z,39.21
2023-05-21T16:48:26.124Z,39.26
2023-05-21T16:50:52.987Z,39.24
2023-05-21T16:53:20.051Z,39.37
2023-05-21T16:55:47.170Z,39.56
2023-05-21T16:58:14.197Z,39.75
2023-05-21T17:00:41.199Z,39.96
2023-05-21T17:03:08.220Z,40.07
2023-05-21T17:05:35.707Z,40.13
2023-05-21T17:08:03.350Z,40.51
2023-05-21T17:10:32.466Z,40.77
2023-05-21T17:13:01.887Z,40.80
2023-05-21T17:15:33.840Z,40.91
2023-05-21T17:18:00.952Z,41.19
2023-05-21T17:20:27.969Z,41.22
2023-05-21T17:22:54.945Z,41.42
2023-05-21T17:25:21.960Z,41.70
2023-05-21T17:27:50.202Z,41.77
2023-05-21T17:30:17.218Z,42.04
2023-05-21T17:32:44.289Z,42.00
2023-05-21T17:35:11.265Z,42.27
2023-05-21T17:37:38.352Z,42.23
2023-05-21T17:40:06.341Z,42.19
2023-05-21T17:42:33.207Z,42.51
2023-05-21T17:45:00.641Z,42.49
2023-05-21T17:47:27.675Z,42.61
2023-05-21T17:50:22.416Z,42.66
2023-05-21T17:52:49.399Z,42.98
2023-05-21T17:55:16.631Z,43.11
2023-05-21T17:57:43.543Z,43.40
2023-05-21T18:00:10.996Z,43.46
2023-05-21T18:02:38.631Z,43.58
2023-05-21T18:05:05.823Z,43.70
2023-05-21T18:07:32.847Z,43.82
2023-05-21T18:09:59.843Z,43.81
2023-05-21T18:12:26.744Z,44.13
2023-05-21T18:14:53.951Z,44.32
2023-05-21T18:17:20.889Z,44.19
2023-05-21T18:19:47.843Z,44.37
2023-05-21T18:22:14.848Z,44.55
2023-05-21T18:24:42.205Z,44.65
2023-05-21T18:27:09.165Z,44.79
2023-05-21T18:29:36.556Z,44.77
2023-05-21T18:32:04.108Z,44.98
2023-05-21T18:34:31.159Z,45.03
2023-05-21T18:36:58.238Z,45.15
2023-05-21T18:39:27.186Z,45.25
2023-05-21T18:42:11.304Z,45.29
2023-05-21T18:44:39.752Z,45.34
2023-05-21T18:47:06.977Z,45.34
2023-05-21T18:49:35.289Z,45.50
2023-05-21T18:52:02.585Z,45.61
2023-05-21T18:54:29.483Z,45.73
2023-05-21T18:57:05.353Z,46.02
2023-05-21T18:59:32.511Z,46.12
2023-05-21T19:01:59.794Z,46.34
2023-05-21T19:04:27.014Z,46.37
2023-05-21T19:06:54.403Z,46.57
2023-05-21T19:09:21.492Z,46.83
2023-05-21T19:11:49.828Z,46.94
2023-05-21T19:14:20.334Z,47.28
2023-05-21T19:16:47.272Z,47.58
2023-05-21T19:19:14.410Z,47.69
2023-05-21T19:21:41.457Z,47.65
2023-05-21T19:24:08.503Z,47.52
2023-05-21T19:26:35.517Z,47.58
2023-05-21T19:29:02.440Z,47.98
2023-05-21T19:31:29.679Z,48.13
2023-05-21T19:33:56.693Z,47.95
2023-05-21T19:36:23.842Z,48.23
2023-05-21T19:38:52.261Z,48.24
2023-05-21T19:41:21.645Z,48.21
2023-05-21T19:43:48.568Z,48.51
2023-05-21T19:46:19.125Z,48.73
2023-05-21T19:48:47.233Z,48.79
2023-05-21T19:51:14.380Z,49.19
2023-05-21T19:53:41.611Z,49.38
2023-05-21T19:56:08.791Z,49.51
2023-05-21T19:58:37.106Z,49.77
2023-05-21T20:01:05.761Z,49.67
2023-05-21T20:03:35.400Z,49.98
2023-05-21T20:06:03.160Z,49.68
2023-05-21T20:08:30.267Z,50.18
2023-05-21T20:10:57.318Z,49.99
2023-05-21T20:13:24.514Z,50.18
2023-05-21T20:15:51.683Z,50.46
2023-05-21T20:18:21.984Z,50.44
2023-05-21T20:20:49.096Z,50.49
2023-05-21T20:23:16.122Z,50.74
2023-05-21T20:25:43.240Z,50.80
2023-05-21T20:28:10.460Z,50.62
2023-05-21T20:30:58.451Z,50.73
2023-05-21T20:33:31.372Z,51.06
2023-05-21T20:35:59.395Z,51.14
2023-05-21T20:38:26.719Z,50.68
2023-05-21T20:40:54.859Z,50.67
2023-05-21T20:43:23.939Z,50.60
2023-05-21T20:45:52.660Z,50.51
2023-05-21T20:48:19.809Z,50.74
2023-05-21T20:50:49.141Z,50.74
2023-05-21T20:53:17.307Z,51.04
2023-05-21T20:55:46.113Z,51.21
2023-05-21T20:58:13.279Z,51.35
2023-05-21T21:00:41.644Z,51.53
2023-05-21T21:03:12.056Z,51.64
2023-05-21T21:06:06.578Z,51.64
2023-05-21T21:08:40.194Z,51.66
2023-05-21T21:11:10.123Z,51.66
2023-05-21T21:13:37.441Z,51.76
2023-05-21T21:16:05.404Z,51.76
2023-05-21T21:18:32.723Z,51.79
2023-05-21T21:21:00.235Z,51.83
2023-05-21T21:23:29.527Z,51.98
2023-05-21T21:25:58.385Z,52.13
2023-05-21T21:28:30.806Z,52.25
2023-05-21T21:30:59.383Z,52.45
2023-05-21T21:46:58.457Z,53.26
2023-05-21T21:49:26.369Z,53.24
2023-05-21T21:52:00.489Z,53.18
2023-05-21T22:08:51.094Z,53.19
2023-05-21T22:11:41.972Z,53.19
2023-05-21T22:14:11.224Z,53.08
2023-05-21T22:38:28.409Z,54.18
2023-05-21T22:40:57.671Z,54.27
2023-05-21T22:43:40.504Z,54.10
2023-05-21T22:46:13.843Z,54.33
2023-05-21T22:49:04.504Z,54.46
2023-05-21T22:52:06.203Z,54.44
2023-05-21T22:54:37.694Z,54.54
2023-05-21T22:57:05.902Z,54.29
2023-05-21T22:59:33.329Z,54.26
2023-05-21T23:02:04.413Z,54.41
2023-05-21T23:04:43.293Z,54.62
2023-05-21T23:07:16.626Z,54.97
2023-05-21T23:10:36.601Z,54.94
2023-05-21T23:13:04.686Z,54.92
2023-05-21T23:15:32.406Z,54.90
2023-05-21T23:18:03.479Z,54.98
2023-05-21T23:20:37.583Z,54.98
2023-05-21T23:23:10.791Z,55.14
2023-05-21T23:25:38.208Z,55.12
2023-05-21T23:28:44.206Z,55.06
2023-05-21T23:31:48.780Z,54.93
2023-05-21T23:34:19.148Z,54.89
2023-05-21T23:36:50.498Z,55.06
2023-05-21T23:39:30.072Z,55.16
2023-05-21T23:42:00.256Z,55.08
2023-05-21T23:44:49.638Z,55.10
2023-05-21T23:54:29.212Z,55.20
2023-05-21T23:57:03.688Z,55.39
